sensor_id;sensor_type;location;lat;lon;timestamp;P1;durP1;ratioP1;P2;durP2;ratioP2
39344;SDS011;25061;51.954;6.996;2022-07-29T00:01:18;3.42;;;0.82;;
39344;SDS011;25061;51.954;6.996;2022-07-29T00:03:44;4.25;;;1.08;;
39344;SDS011;25061;51.954;6.996;2022-07-29T00:06:10;3.95;;;0.90;;
39344;SDS011;25061;51.954;6.996;2022-07-29T00:08:35;3.92;;;1.00;;
39344;SDS011;25061;51.954;6.996;2022-07-29T00:11:01;3.80;;;1.13;;
39344;SDS011;25061;51.954;6.996;2022-07-29T00:13:27;5.63;;;0.90;;
39344;SDS011;25061;51.954;6.996;2022-07-29T00:15:52;5.43;;;0.90;;
39344;SDS011;25061;51.954;6.996;2022-07-29T00:18:18;3.63;;;1.00;;
39344;SDS011;25061;51.954;6.996;2022-07-29T00:20:43;5.60;;;0.90;;
39344;SDS011;25061;51.954;6.996;2022-07-29T00:23:09;2.50;;;0.90;;
39344;SDS011;25061;51.954;6.996;2022-07-29T00:25:34;2.75;;;1.08;;
39344;SDS011;25061;51.954;6.996;2022-07-29T00:28:00;7.40;;;0.98;;
39344;SDS011;25061;51.954;6.996;2022-07-29T00:30:25;4.10;;;1.05;;
39344;SDS011;25061;51.954;6.996;2022-07-29T00:32:51;1.80;;;0.80;;
39344;SDS011;25061;51.954;6.996;2022-07-29T00:35:17;4.57;;;0.85;;
39344;SDS011;25061;51.954;6.996;2022-07-29T00:38:01;8.68;;;1.50;;
39344;SDS011;25061;51.954;6.996;2022-07-29T00:40:26;6.40;;;1.00;;
39344;SDS011;25061;51.954;6.996;2022-07-29T00:42:52;5.45;;;1.40;;
39344;SDS011;25061;51.954;6.996;2022-07-29T00:45:18;4.05;;;1.00;;
39344;SDS011;25061;51.954;6.996;2022-07-29T00:47:44;4.68;;;1.00;;
39344;SDS011;25061;51.954;6.996;2022-07-29T00:50:10;4.18;;;0.93;;
39344;SDS011;25061;51.954;6.996;2022-07-29T00:52:38;4.00;;;1.10;;
39344;SDS011;25061;51.954;6.996;2022-07-29T00:55:06;4.85;;;0.90;;
39344;SDS011;25061;51.954;6.996;2022-07-29T01:00:15;3.22;;;1.30;;
39344;SDS011;25061;51.954;6.996;2022-07-29T01:02:46;2.83;;;1.10;;
39344;SDS011;25061;51.954;6.996;2022-07-29T01:05:15;4.75;;;1.25;;
39344;SDS011;25061;51.954;6.996;2022-07-29T01:07:43;5.35;;;1.40;;
39344;SDS011;25061;51.954;6.996;2022-07-29T01:10:10;3.80;;;0.90;;
39344;SDS011;25061;51.954;6.996;2022-07-29T01:12:38;4.70;;;1.05;;
39344;SDS011;25061;51.954;6.996;2022-07-29T01:15:05;3.53;;;1.13;;
39344;SDS011;25061;51.954;6.996;2022-07-29T01:20:31;3.97;;;1.10;;
39344;SDS011;25061;51.954;6.996;2022-07-29T01:29:00;4.00;;;1.20;;
39344;SDS011;25061;51.954;6.996;2022-07-29T01:31:47;3.47;;;1.35;;
39344;SDS011;25061;51.954;6.996;2022-07-29T01:34:23;4.72;;;1.45;;
39344;SDS011;25061;51.954;6.996;2022-07-29T01:39:42;6.72;;;1.83;;
39344;SDS011;25061;51.954;6.996;2022-07-29T01:44:48;6.37;;;1.93;;
39344;SDS011;25061;51.954;6.996;2022-07-29T01:47:21;4.30;;;1.10;;
39344;SDS011;25061;51.954;6.996;2022-07-29T01:49:52;6.07;;;1.20;;
39344;SDS011;25061;51.954;6.996;2022-07-29T01:52:26;4.20;;;1.10;;
39344;SDS011;25061;51.954;6.996;2022-07-29T01:54:58;5.53;;;1.27;;
39344;SDS011;25061;51.954;6.996;2022-07-29T01:57:28;3.78;;;1.00;;
39344;SDS011;25061;51.954;6.996;2022-07-29T01:59:56;4.15;;;1.10;;
39344;SDS011;25061;51.954;6.996;2022-07-29T02:02:23;4.10;;;0.95;;
39344;SDS011;25061;51.954;6.996;2022-07-29T02:04:51;6.47;;;1.33;;
39344;SDS011;25061;51.954;6.996;2022-07-29T02:07:19;5.45;;;1.17;;
39344;SDS011;25061;51.954;6.996;2022-07-29T02:09:47;7.32;;;1.10;;
39344;SDS011;25061;51.954;6.996;2022-07-29T02:12:16;5.47;;;1.52;;
39344;SDS011;25061;51.954;6.996;2022-07-29T02:14:45;3.75;;;1.40;;
39344;SDS011;25061;51.954;6.996;2022-07-29T02:17:13;6.63;;;1.30;;
39344;SDS011;25061;51.954;6.996;2022-07-29T02:19:48;6.22;;;1.50;;
39344;SDS011;25061;51.954;6.996;2022-07-29T02:22:15;2.90;;;1.17;;
39344;SDS011;25061;51.954;6.996;2022-07-29T02:24:44;4.90;;;1.25;;
39344;SDS011;25061;51.954;6.996;2022-07-29T02:27:11;9.18;;;1.40;;
39344;SDS011;25061;51.954;6.996;2022-07-29T02:29:38;4.25;;;1.30;;
39344;SDS011;25061;51.954;6.996;2022-07-29T02:32:04;5.80;;;1.50;;
39344;SDS011;25061;51.954;6.996;2022-07-29T02:34:33;6.65;;;1.25;;
39344;SDS011;25061;51.954;6.996;2022-07-29T02:37:00;5.72;;;1.63;;
39344;SDS011;25061;51.954;6.996;2022-07-29T02:39:27;4.45;;;1.20;;
39344;SDS011;25061;51.954;6.996;2022-07-29T02:41:55;5.38;;;1.40;;
39344;SDS011;25061;51.954;6.996;2022-07-29T02:44:26;6.45;;;1.38;;
39344;SDS011;25061;51.954;6.996;2022-07-29T02:47:01;5.50;;;1.67;;
39344;SDS011;25061;51.954;6.996;2022-07-29T02:49:48;3.72;;;1.63;;
39344;SDS011;25061;51.954;6.996;2022-07-29T02:52:41;5.25;;;1.77;;
39344;SDS011;25061;51.954;6.996;2022-07-29T02:55:29;9.13;;;1.80;;
39344;SDS011;25061;51.954;6.996;2022-07-29T02:58:02;7.28;;;1.50;;
39344;SDS011;25061;51.954;6.996;2022-07-29T03:00:38;5.22;;;1.30;;
39344;SDS011;25061;51.954;6.996;2022-07-29T03:03:07;5.43;;;1.33;;
39344;SDS011;25061;51.954;6.996;2022-07-29T03:05:37;3.88;;;1.20;;
39344;SDS011;25061;51.954;6.996;2022-07-29T03:08:04;5.85;;;1.40;;
39344;SDS011;25061;51.954;6.996;2022-07-29T03:10:32;5.72;;;1.52;;
39344;SDS011;25061;51.954;6.996;2022-07-29T03:12:58;5.78;;;1.23;;
39344;SDS011;25061;51.954;6.996;2022-07-29T03:15:25;9.25;;;1.80;;
39344;SDS011;25061;51.954;6.996;2022-07-29T03:17:52;3.88;;;1.30;;
39344;SDS011;25061;51.954;6.996;2022-07-29T03:20:20;5.72;;;1.88;;
39344;SDS011;25061;51.954;6.996;2022-07-29T03:22:46;6.40;;;1.42;;
39344;SDS011;25061;51.954;6.996;2022-07-29T03:27:38;4.18;;;1.40;;
39344;SDS011;25061;51.954;6.996;2022-07-29T03:30:05;8.63;;;1.50;;
39344;SDS011;25061;51.954;6.996;2022-07-29T03:32:32;6.53;;;1.60;;
39344;SDS011;25061;51.954;6.996;2022-07-29T03:34:57;6.68;;;1.92;;
39344;SDS011;25061;51.954;6.996;2022-07-29T03:37:23;4.40;;;1.27;;
39344;SDS011;25061;51.954;6.996;2022-07-29T03:39:48;6.45;;;1.30;;
39344;SDS011;25061;51.954;6.996;2022-07-29T03:42:16;5.93;;;1.52;;
39344;SDS011;25061;51.954;6.996;2022-07-29T03:44:45;6.80;;;1.80;;
39344;SDS011;25061;51.954;6.996;2022-07-29T03:47:13;5.03;;;1.45;;
39344;SDS011;25061;51.954;6.996;2022-07-29T03:49:40;5.05;;;1.33;;
39344;SDS011;25061;51.954;6.996;2022-07-29T03:52:07;6.60;;;1.48;;
39344;SDS011;25061;51.954;6.996;2022-07-29T03:54:33;5.72;;;1.38;;
39344;SDS011;25061;51.954;6.996;2022-07-29T03:56:59;3.58;;;1.20;;
39344;SDS011;25061;51.954;6.996;2022-07-29T03:59:26;6.63;;;1.60;;
39344;SDS011;25061;51.954;6.996;2022-07-29T04:01:52;5.80;;;1.30;;
39344;SDS011;25061;51.954;6.996;2022-07-29T04:04:20;4.97;;;1.40;;
39344;SDS011;25061;51.954;6.996;2022-07-29T04:06:46;3.47;;;1.20;;
39344;SDS011;25061;51.954;6.996;2022-07-29T04:09:12;4.72;;;1.63;;
39344;SDS011;25061;51.954;6.996;2022-07-29T04:11:38;7.07;;;1.38;;
39344;SDS011;25061;51.954;6.996;2022-07-29T04:14:05;5.15;;;1.60;;
39344;SDS011;25061;51.954;6.996;2022-07-29T04:16:31;8.85;;;1.48;;
39344;SDS011;25061;51.954;6.996;2022-07-29T04:18:57;2.92;;;1.00;;
39344;SDS011;25061;51.954;6.996;2022-07-29T04:21:22;4.28;;;1.30;;
39344;SDS011;25061;51.954;6.996;2022-07-29T04:23:48;6.18;;;1.30;;
39344;SDS011;25061;51.954;6.996;2022-07-29T04:26:15;6.68;;;1.50;;
39344;SDS011;25061;51.954;6.996;2022-07-29T04:28:41;4.75;;;1.25;;
39344;SDS011;25061;51.954;6.996;2022-07-29T04:31:07;4.95;;;1.33;;
39344;SDS011;25061;51.954;6.996;2022-07-29T04:33:33;5.90;;;1.40;;
39344;SDS011;25061;51.954;6.996;2022-07-29T04:35:59;4.38;;;1.50;;
39344;SDS011;25061;51.954;6.996;2022-07-29T04:38:24;7.55;;;1.38;;
39344;SDS011;25061;51.954;6.996;2022-07-29T04:40:50;5.35;;;1.63;;
39344;SDS011;25061;51.954;6.996;2022-07-29T04:43:15;5.22;;;1.50;;
39344;SDS011;25061;51.954;6.996;2022-07-29T04:45:41;9.40;;;2.33;;
39344;SDS011;25061;51.954;6.996;2022-07-29T04:48:07;9.27;;;1.95;;
39344;SDS011;25061;51.954;6.996;2022-07-29T04:50:32;7.25;;;1.85;;
39344;SDS011;25061;51.954;6.996;2022-07-29T04:52:58;5.43;;;1.48;;
39344;SDS011;25061;51.954;6.996;2022-07-29T04:55:24;4.40;;;1.20;;
39344;SDS011;25061;51.954;6.996;2022-07-29T04:57:50;5.60;;;1.40;;
39344;SDS011;25061;51.954;6.996;2022-07-29T05:00:15;4.32;;;1.50;;
39344;SDS011;25061;51.954;6.996;2022-07-29T05:02:41;8.10;;;1.92;;
39344;SDS011;25061;51.954;6.996;2022-07-29T05:05:07;7.97;;;2.05;;
39344;SDS011;25061;51.954;6.996;2022-07-29T05:07:33;5.60;;;1.45;;
39344;SDS011;25061;51.954;6.996;2022-07-29T05:09:58;7.60;;;1.80;;
39344;SDS011;25061;51.954;6.996;2022-07-29T05:12:24;6.75;;;1.75;;
39344;SDS011;25061;51.954;6.996;2022-07-29T05:14:50;4.05;;;1.20;;
39344;SDS011;25061;51.954;6.996;2022-07-29T05:17:16;10.60;;;2.22;;
39344;SDS011;25061;51.954;6.996;2022-07-29T05:19:41;8.85;;;2.63;;
39344;SDS011;25061;51.954;6.996;2022-07-29T05:22:07;4.72;;;1.63;;
39344;SDS011;25061;51.954;6.996;2022-07-29T05:24:32;5.70;;;1.80;;
39344;SDS011;25061;51.954;6.996;2022-07-29T05:26:58;4.00;;;1.30;;
39344;SDS011;25061;51.954;6.996;2022-07-29T05:29:23;7.22;;;1.90;;
39344;SDS011;25061;51.954;6.996;2022-07-29T05:31:49;7.10;;;1.90;;
39344;SDS011;25061;51.954;6.996;2022-07-29T05:34:16;6.78;;;1.60;;
39344;SDS011;25061;51.954;6.996;2022-07-29T05:36:42;5.07;;;1.80;;
39344;SDS011;25061;51.954;6.996;2022-07-29T05:39:07;8.52;;;2.10;;
39344;SDS011;25061;51.954;6.996;2022-07-29T05:41:33;5.85;;;1.90;;
39344;SDS011;25061;51.954;6.996;2022-07-29T05:43:58;8.50;;;2.08;;
39344;SDS011;25061;51.954;6.996;2022-07-29T05:46:25;6.45;;;1.70;;
39344;SDS011;25061;51.954;6.996;2022-07-29T05:48:51;6.72;;;2.10;;
39344;SDS011;25061;51.954;6.996;2022-07-29T05:51:16;5.40;;;1.70;;
39344;SDS011;25061;51.954;6.996;2022-07-29T05:53:42;5.70;;;1.73;;
39344;SDS011;25061;51.954;6.996;2022-07-29T05:56:09;5.50;;;1.67;;
39344;SDS011;25061;51.954;6.996;2022-07-29T05:58:35;5.13;;;1.70;;
39344;SDS011;25061;51.954;6.996;2022-07-29T06:01:01;4.50;;;1.50;;
39344;SDS011;25061;51.954;6.996;2022-07-29T06:03:27;6.43;;;1.98;;
39344;SDS011;25061;51.954;6.996;2022-07-29T06:05:53;4.97;;;1.60;;
39344;SDS011;25061;51.954;6.996;2022-07-29T06:08:19;5.32;;;1.60;;
39344;SDS011;25061;51.954;6.996;2022-07-29T06:10:44;7.28;;;2.08;;
39344;SDS011;25061;51.954;6.996;2022-07-29T06:13:13;8.82;;;2.00;;
39344;SDS011;25061;51.954;6.996;2022-07-29T06:15:40;7.53;;;1.73;;
39344;SDS011;25061;51.954;6.996;2022-07-29T06:18:07;8.63;;;2.20;;
39344;SDS011;25061;51.954;6.996;2022-07-29T06:20:34;5.10;;;1.67;;
39344;SDS011;25061;51.954;6.996;2022-07-29T06:23:00;5.05;;;1.85;;
39344;SDS011;25061;51.954;6.996;2022-07-29T06:25:26;7.75;;;1.98;;
39344;SDS011;25061;51.954;6.996;2022-07-29T06:27:55;5.50;;;1.83;;
39344;SDS011;25061;51.954;6.996;2022-07-29T06:30:21;6.95;;;2.35;;
39344;SDS011;25061;51.954;6.996;2022-07-29T06:32:47;6.93;;;2.10;;
39344;SDS011;25061;51.954;6.996;2022-07-29T06:35:13;7.22;;;2.10;;
39344;SDS011;25061;51.954;6.996;2022-07-29T06:37:38;8.65;;;2.38;;
39344;SDS011;25061;51.954;6.996;2022-07-29T06:40:04;6.80;;;2.10;;
39344;SDS011;25061;51.954;6.996;2022-07-29T06:42:48;8.65;;;2.65;;
39344;SDS011;25061;51.954;6.996;2022-07-29T06:45:14;5.85;;;2.20;;
39344;SDS011;25061;51.954;6.996;2022-07-29T06:47:39;8.27;;;2.40;;
39344;SDS011;25061;51.954;6.996;2022-07-29T06:50:05;8.93;;;2.80;;
39344;SDS011;25061;51.954;6.996;2022-07-29T06:52:31;8.50;;;2.30;;
39344;SDS011;25061;51.954;6.996;2022-07-29T06:54:56;10.35;;;2.45;;
39344;SDS011;25061;51.954;6.996;2022-07-29T06:57:22;6.53;;;2.53;;
39344;SDS011;25061;51.954;6.996;2022-07-29T06:59:48;6.80;;;2.22;;
39344;SDS011;25061;51.954;6.996;2022-07-29T07:02:13;6.47;;;2.30;;
39344;SDS011;25061;51.954;6.996;2022-07-29T07:04:39;9.57;;;2.40;;
39344;SDS011;25061;51.954;6.996;2022-07-29T07:07:04;6.90;;;2.50;;
39344;SDS011;25061;51.954;6.996;2022-07-29T07:09:30;6.40;;;2.03;;
39344;SDS011;25061;51.954;6.996;2022-07-29T07:11:56;6.00;;;2.05;;
39344;SDS011;25061;51.954;6.996;2022-07-29T07:14:21;6.22;;;2.25;;
39344;SDS011;25061;51.954;6.996;2022-07-29T07:16:47;8.25;;;2.53;;
39344;SDS011;25061;51.954;6.996;2022-07-29T07:19:13;7.25;;;2.33;;
39344;SDS011;25061;51.954;6.996;2022-07-29T07:21:38;7.40;;;2.58;;
39344;SDS011;25061;51.954;6.996;2022-07-29T07:24:04;7.70;;;2.58;;
39344;SDS011;25061;51.954;6.996;2022-07-29T07:26:30;6.78;;;2.90;;
39344;SDS011;25061;51.954;6.996;2022-07-29T07:28:55;8.88;;;2.67;;
39344;SDS011;25061;51.954;6.996;2022-07-29T07:31:21;9.23;;;2.65;;
39344;SDS011;25061;51.954;6.996;2022-07-29T07:33:47;9.00;;;3.70;;
39344;SDS011;25061;51.954;6.996;2022-07-29T07:36:13;7.63;;;3.00;;
39344;SDS011;25061;51.954;6.996;2022-07-29T07:38:38;9.95;;;3.13;;
39344;SDS011;25061;51.954;6.996;2022-07-29T07:41:04;10.48;;;3.05;;
39344;SDS011;25061;51.954;6.996;2022-07-29T07:43:30;9.73;;;3.78;;
39344;SDS011;25061;51.954;6.996;2022-07-29T07:45:55;8.55;;;2.90;;
39344;SDS011;25061;51.954;6.996;2022-07-29T07:48:21;8.25;;;2.80;;
39344;SDS011;25061;51.954;6.996;2022-07-29T07:50:46;7.88;;;2.78;;
39344;SDS011;25061;51.954;6.996;2022-07-29T07:53:14;9.45;;;2.95;;
39344;SDS011;25061;51.954;6.996;2022-07-29T07:55:40;6.13;;;2.75;;
39344;SDS011;25061;51.954;6.996;2022-07-29T07:58:06;7.13;;;2.70;;
39344;SDS011;25061;51.954;6.996;2022-07-29T08:00:32;7.80;;;2.67;;
39344;SDS011;25061;51.954;6.996;2022-07-29T08:02:57;6.20;;;2.30;;
39344;SDS011;25061;51.954;6.996;2022-07-29T08:05:23;10.60;;;3.30;;
39344;SDS011;25061;51.954;6.996;2022-07-29T08:07:49;8.88;;;2.63;;
39344;SDS011;25061;51.954;6.996;2022-07-29T08:10:15;8.82;;;2.90;;
39344;SDS011;25061;51.954;6.996;2022-07-29T08:13:01;6.95;;;2.80;;
39344;SDS011;25061;51.954;6.996;2022-07-29T08:15:31;6.82;;;2.80;;
39344;SDS011;25061;51.954;6.996;2022-07-29T08:17:56;6.80;;;2.47;;
39344;SDS011;25061;51.954;6.996;2022-07-29T08:20:22;7.00;;;2.92;;
39344;SDS011;25061;51.954;6.996;2022-07-29T08:22:48;6.75;;;2.53;;
39344;SDS011;25061;51.954;6.996;2022-07-29T08:25:13;9.95;;;2.63;;
39344;SDS011;25061;51.954;6.996;2022-07-29T08:27:39;8.02;;;3.03;;
39344;SDS011;25061;51.954;6.996;2022-07-29T08:30:04;8.15;;;2.95;;
39344;SDS011;25061;51.954;6.996;2022-07-29T08:32:31;7.13;;;2.47;;
39344;SDS011;25061;51.954;6.996;2022-07-29T08:34:56;7.45;;;2.90;;
39344;SDS011;25061;51.954;6.996;2022-07-29T08:37:22;7.88;;;2.80;;
39344;SDS011;25061;51.954;6.996;2022-07-29T08:39:47;7.95;;;2.42;;
39344;SDS011;25061;51.954;6.996;2022-07-29T08:42:13;7.20;;;1.50;;
39344;SDS011;25061;51.954;6.996;2022-07-29T08:44:41;6.38;;;2.70;;
39344;SDS011;25061;51.954;6.996;2022-07-29T08:47:07;6.45;;;2.13;;
39344;SDS011;25061;51.954;6.996;2022-07-29T08:49:33;6.38;;;2.38;;
39344;SDS011;25061;51.954;6.996;2022-07-29T08:52:00;6.20;;;2.20;;
39344;SDS011;25061;51.954;6.996;2022-07-29T08:54:26;6.47;;;1.90;;
39344;SDS011;25061;51.954;6.996;2022-07-29T08:56:52;6.30;;;2.00;;
39344;SDS011;25061;51.954;6.996;2022-07-29T08:59:19;5.75;;;2.45;;
39344;SDS011;25061;51.954;6.996;2022-07-29T09:01:47;7.57;;;2.58;;
39344;SDS011;25061;51.954;6.996;2022-07-29T09:04:16;6.47;;;2.55;;
39344;SDS011;25061;51.954;6.996;2022-07-29T09:06:44;7.65;;;2.40;;
39344;SDS011;25061;51.954;6.996;2022-07-29T09:09:12;7.53;;;2.53;;
39344;SDS011;25061;51.954;6.996;2022-07-29T09:11:38;13.13;;;3.55;;
39344;SDS011;25061;51.954;6.996;2022-07-29T09:14:05;5.55;;;2.25;;
39344;SDS011;25061;51.954;6.996;2022-07-29T09:19:19;9.45;;;3.08;;
39344;SDS011;25061;51.954;6.996;2022-07-29T09:21:45;8.15;;;3.10;;
39344;SDS011;25061;51.954;6.996;2022-07-29T09:26:58;9.65;;;4.03;;
39344;SDS011;25061;51.954;6.996;2022-07-29T09:29:23;14.02;;;3.80;;
39344;SDS011;25061;51.954;6.996;2022-07-29T09:31:53;11.68;;;4.22;;
39344;SDS011;25061;51.954;6.996;2022-07-29T09:36:50;9.23;;;4.05;;
39344;SDS011;25061;51.954;6.996;2022-07-29T09:39:28;11.40;;;4.53;;
39344;SDS011;25061;51.954;6.996;2022-07-29T09:41:55;8.18;;;3.85;;
39344;SDS011;25061;51.954;6.996;2022-07-29T09:44:45;7.70;;;3.65;;
39344;SDS011;25061;51.954;6.996;2022-07-29T09:47:13;9.02;;;4.50;;
39344;SDS011;25061;51.954;6.996;2022-07-29T09:49:55;14.20;;;4.05;;
39344;SDS011;25061;51.954;6.996;2022-07-29T09:52:26;8.57;;;3.80;;
39344;SDS011;25061;51.954;6.996;2022-07-29T09:54:52;9.48;;;4.13;;
39344;SDS011;25061;51.954;6.996;2022-07-29T09:57:23;10.90;;;3.97;;
39344;SDS011;25061;51.954;6.996;2022-07-29T09:59:56;9.80;;;4.43;;
39344;SDS011;25061;51.954;6.996;2022-07-29T10:02:21;9.05;;;4.15;;
39344;SDS011;25061;51.954;6.996;2022-07-29T10:04:47;8.02;;;3.90;;
39344;SDS011;25061;51.954;6.996;2022-07-29T10:07:12;12.57;;;4.40;;
39344;SDS011;25061;51.954;6.996;2022-07-29T10:09:38;8.73;;;3.63;;
39344;SDS011;25061;51.954;6.996;2022-07-29T10:14:35;9.35;;;3.85;;
39344;SDS011;25061;51.954;6.996;2022-07-29T10:17:01;8.30;;;4.07;;
39344;SDS011;25061;51.954;6.996;2022-07-29T10:19:29;8.60;;;3.80;;
39344;SDS011;25061;51.954;6.996;2022-07-29T10:21:56;8.48;;;4.00;;
39344;SDS011;25061;51.954;6.996;2022-07-29T10:24:23;9.80;;;3.70;;
39344;SDS011;25061;51.954;6.996;2022-07-29T10:26:54;9.63;;;4.35;;
39344;SDS011;25061;51.954;6.996;2022-07-29T10:29:22;9.63;;;4.70;;
39344;SDS011;25061;51.954;6.996;2022-07-29T10:32:34;9.90;;;4.60;;
39344;SDS011;25061;51.954;6.996;2022-07-29T10:43:32;9.75;;;4.85;;
39344;SDS011;25061;51.954;6.996;2022-07-29T10:46:02;7.60;;;4.10;;
39344;SDS011;25061;51.954;6.996;2022-07-29T10:48:29;8.93;;;5.28;;
39344;SDS011;25061;51.954;6.996;2022-07-29T10:50:58;9.75;;;4.60;;
39344;SDS011;25061;51.954;6.996;2022-07-29T10:53:25;9.27;;;4.45;;
39344;SDS011;25061;51.954;6.996;2022-07-29T10:56:25;11.10;;;4.18;;
39344;SDS011;25061;51.954;6.996;2022-07-29T11:01:42;9.00;;;3.63;;
39344;SDS011;25061;51.954;6.996;2022-07-29T11:04:08;8.48;;;3.83;;
39344;SDS011;25061;51.954;6.996;2022-07-29T11:09:32;8.90;;;4.13;;
39344;SDS011;25061;51.954;6.996;2022-07-29T11:11:58;8.88;;;3.80;;
39344;SDS011;25061;51.954;6.996;2022-07-29T11:17:21;10.93;;;4.10;;
39344;SDS011;25061;51.954;6.996;2022-07-29T11:19:47;13.25;;;4.53;;
39344;SDS011;25061;51.954;6.996;2022-07-29T11:22:30;10.32;;;4.22;;
39344;SDS011;25061;51.954;6.996;2022-07-29T11:25:16;9.43;;;4.15;;
39344;SDS011;25061;51.954;6.996;2022-07-29T11:27:46;8.90;;;4.65;;
39344;SDS011;25061;51.954;6.996;2022-07-29T11:30:12;9.55;;;4.07;;
39344;SDS011;25061;51.954;6.996;2022-07-29T11:32:40;10.45;;;4.03;;
39344;SDS011;25061;51.954;6.996;2022-07-29T11:35:19;10.00;;;4.88;;
39344;SDS011;25061;51.954;6.996;2022-07-29T11:38:22;8.90;;;4.50;;
39344;SDS011;25061;51.954;6.996;2022-07-29T11:43:54;9.43;;;4.47;;
39344;SDS011;25061;51.954;6.996;2022-07-29T11:49:18;9.48;;;4.63;;
39344;SDS011;25061;51.954;6.996;2022-07-29T11:51:53;10.30;;;4.38;;
39344;SDS011;25061;51.954;6.996;2022-07-29T11:54:24;6.28;;;2.45;;
39344;SDS011;25061;51.954;6.996;2022-07-29T11:56:52;10.88;;;4.28;;
39344;SDS011;25061;51.954;6.996;2022-07-29T11:59:18;9.73;;;3.63;;
39344;SDS011;25061;51.954;6.996;2022-07-29T12:01:51;8.95;;;3.85;;
39344;SDS011;25061;51.954;6.996;2022-07-29T12:04:18;10.55;;;4.15;;
39344;SDS011;25061;51.954;6.996;2022-07-29T12:06:48;10.82;;;4.05;;
39344;SDS011;25061;51.954;6.996;2022-07-29T12:09:21;10.32;;;4.05;;
39344;SDS011;25061;51.954;6.996;2022-07-29T12:11:48;8.80;;;4.00;;
39344;SDS011;25061;51.954;6.996;2022-07-29T12:14:27;7.05;;;3.45;;
39344;SDS011;25061;51.954;6.996;2022-07-29T12:16:58;10.38;;;3.80;;
39344;SDS011;25061;51.954;6.996;2022-07-29T12:19:24;14.77;;;4.13;;
39344;SDS011;25061;51.954;6.996;2022-07-29T12:21:51;11.88;;;3.78;;
39344;SDS011;25061;51.954;6.996;2022-07-29T12:24:18;9.95;;;3.97;;
39344;SDS011;25061;51.954;6.996;2022-07-29T12:29:20;9.52;;;3.30;;
39344;SDS011;25061;51.954;6.996;2022-07-29T12:31:46;10.18;;;3.78;;
39344;SDS011;25061;51.954;6.996;2022-07-29T12:34:19;9.02;;;3.53;;
39344;SDS011;25061;51.954;6.996;2022-07-29T12:36:46;7.82;;;3.00;;
39344;SDS011;25061;51.954;6.996;2022-07-29T12:39:11;8.52;;;3.72;;
39344;SDS011;25061;51.954;6.996;2022-07-29T12:41:37;9.57;;;3.35;;
39344;SDS011;25061;51.954;6.996;2022-07-29T12:44:04;6.25;;;2.40;;
39344;SDS011;25061;51.954;6.996;2022-07-29T12:46:29;9.02;;;3.25;;
39344;SDS011;25061;51.954;6.996;2022-07-29T12:48:55;7.47;;;3.20;;
39344;SDS011;25061;51.954;6.996;2022-07-29T12:51:54;9.00;;;3.40;;
39344;SDS011;25061;51.954;6.996;2022-07-29T12:54:13;13.57;;;3.17;;
39344;SDS011;25061;51.954;6.996;2022-07-29T12:56:41;11.45;;;3.53;;
39344;SDS011;25061;51.954;6.996;2022-07-29T12:59:17;6.68;;;2.40;;
39344;SDS011;25061;51.954;6.996;2022-07-29T13:01:44;11.55;;;3.60;;
39344;SDS011;25061;51.954;6.996;2022-07-29T13:04:23;8.45;;;3.42;;
39344;SDS011;25061;51.954;6.996;2022-07-29T13:07:03;7.88;;;2.60;;
39344;SDS011;25061;51.954;6.996;2022-07-29T13:09:42;9.25;;;3.55;;
39344;SDS011;25061;51.954;6.996;2022-07-29T13:12:09;9.07;;;3.58;;
39344;SDS011;25061;51.954;6.996;2022-07-29T13:17:11;9.25;;;3.03;;
39344;SDS011;25061;51.954;6.996;2022-07-29T13:19:45;7.00;;;2.45;;
39344;SDS011;25061;51.954;6.996;2022-07-29T13:22:13;7.83;;;2.60;;
39344;SDS011;25061;51.954;6.996;2022-07-29T13:27:13;4.97;;;2.60;;
39344;SDS011;25061;51.954;6.996;2022-07-29T13:29:40;9.00;;;3.63;;
39344;SDS011;25061;51.954;6.996;2022-07-29T13:32:06;7.30;;;2.97;;
39344;SDS011;25061;51.954;6.996;2022-07-29T13:34:32;13.60;;;3.08;;
39344;SDS011;25061;51.954;6.996;2022-07-29T13:36:57;7.35;;;2.63;;
39344;SDS011;25061;51.954;6.996;2022-07-29T13:39:23;7.88;;;2.88;;
39344;SDS011;25061;51.954;6.996;2022-07-29T13:41:49;9.70;;;2.95;;
39344;SDS011;25061;51.954;6.996;2022-07-29T13:44:14;5.60;;;2.00;;
39344;SDS011;25061;51.954;6.996;2022-07-29T13:46:40;8.73;;;3.45;;
39344;SDS011;25061;51.954;6.996;2022-07-29T13:49:05;9.70;;;3.35;;
39344;SDS011;25061;51.954;6.996;2022-07-29T13:51:31;9.30;;;3.35;;
39344;SDS011;25061;51.954;6.996;2022-07-29T13:53:56;7.07;;;2.20;;
39344;SDS011;25061;51.954;6.996;2022-07-29T13:56:22;11.35;;;3.53;;
39344;SDS011;25061;51.954;6.996;2022-07-29T13:58:47;7.25;;;2.28;;
39344;SDS011;25061;51.954;6.996;2022-07-29T14:01:13;6.93;;;2.67;;
39344;SDS011;25061;51.954;6.996;2022-07-29T14:03:38;9.20;;;2.65;;
39344;SDS011;25061;51.954;6.996;2022-07-29T14:06:06;8.82;;;3.20;;
39344;SDS011;25061;51.954;6.996;2022-07-29T14:08:31;7.45;;;2.88;;
39344;SDS011;25061;51.954;6.996;2022-07-29T14:10:57;21.30;;;5.25;;
39344;SDS011;25061;51.954;6.996;2022-07-29T14:13:23;10.07;;;3.28;;
39344;SDS011;25061;51.954;6.996;2022-07-29T14:15:48;8.68;;;3.50;;
39344;SDS011;25061;51.954;6.996;2022-07-29T14:18:14;7.30;;;3.17;;
39344;SDS011;25061;51.954;6.996;2022-07-29T14:20:39;8.82;;;3.22;;
39344;SDS011;25061;51.954;6.996;2022-07-29T14:23:05;16.52;;;3.90;;
39344;SDS011;25061;51.954;6.996;2022-07-29T14:25:31;11.73;;;3.60;;
39344;SDS011;25061;51.954;6.996;2022-07-29T14:27:56;15.40;;;3.80;;
39344;SDS011;25061;51.954;6.996;2022-07-29T14:30:22;8.07;;;2.70;;
39344;SDS011;25061;51.954;6.996;2022-07-29T14:32:47;8.90;;;3.38;;
39344;SDS011;25061;51.954;6.996;2022-07-29T14:35:13;14.00;;;4.70;;
39344;SDS011;25061;51.954;6.996;2022-07-29T14:37:38;8.90;;;3.75;;
39344;SDS011;25061;51.954;6.996;2022-07-29T14:40:04;10.35;;;2.90;;
39344;SDS011;25061;51.954;6.996;2022-07-29T14:42:30;9.25;;;3.08;;
39344;SDS011;25061;51.954;6.996;2022-07-29T14:44:56;8.48;;;2.85;;
39344;SDS011;25061;51.954;6.996;2022-07-29T14:47:22;8.43;;;3.72;;
39344;SDS011;25061;51.954;6.996;2022-07-29T14:49:48;6.22;;;2.33;;
39344;SDS011;25061;51.954;6.996;2022-07-29T14:52:14;7.90;;;3.35;;
39344;SDS011;25061;51.954;6.996;2022-07-29T14:54:40;11.10;;;2.58;;
39344;SDS011;25061;51.954;6.996;2022-07-29T14:57:05;7.80;;;3.10;;
39344;SDS011;25061;51.954;6.996;2022-07-29T14:59:31;8.27;;;2.97;;
39344;SDS011;25061;51.954;6.996;2022-07-29T15:01:56;10.45;;;3.10;;
39344;SDS011;25061;51.954;6.996;2022-07-29T15:04:22;7.45;;;2.17;;
39344;SDS011;25061;51.954;6.996;2022-07-29T15:06:48;6.93;;;2.58;;
39344;SDS011;25061;51.954;6.996;2022-07-29T15:09:13;12.68;;;3.33;;
39344;SDS011;25061;51.954;6.996;2022-07-29T15:11:39;8.18;;;3.40;;
39344;SDS011;25061;51.954;6.996;2022-07-29T15:14:05;7.30;;;2.55;;
39344;SDS011;25061;51.954;6.996;2022-07-29T15:16:31;6.50;;;2.40;;
39344;SDS011;25061;51.954;6.996;2022-07-29T15:18:57;10.35;;;3.10;;
39344;SDS011;25061;51.954;6.996;2022-07-29T15:21:23;9.68;;;2.78;;
39344;SDS011;25061;51.954;6.996;2022-07-29T15:23:49;8.88;;;3.00;;
39344;SDS011;25061;51.954;6.996;2022-07-29T15:26:14;8.70;;;2.88;;
39344;SDS011;25061;51.954;6.996;2022-07-29T15:28:40;6.18;;;2.42;;
39344;SDS011;25061;51.954;6.996;2022-07-29T15:31:05;7.32;;;2.33;;
39344;SDS011;25061;51.954;6.996;2022-07-29T15:33:31;7.50;;;2.30;;
39344;SDS011;25061;51.954;6.996;2022-07-29T15:35:57;7.45;;;2.10;;
39344;SDS011;25061;51.954;6.996;2022-07-29T15:38:22;7.72;;;2.60;;
39344;SDS011;25061;51.954;6.996;2022-07-29T15:40:48;6.85;;;2.58;;
39344;SDS011;25061;51.954;6.996;2022-07-29T15:43:13;10.57;;;3.00;;
39344;SDS011;25061;51.954;6.996;2022-07-29T15:45:39;7.22;;;2.08;;
39344;SDS011;25061;51.954;6.996;2022-07-29T15:48:07;8.50;;;2.42;;
39344;SDS011;25061;51.954;6.996;2022-07-29T15:50:33;6.97;;;2.65;;